sensor_id;sensor_type;location;lat;lon;timestamp;temperature;humidity
27858;DHT22;16852;51.446;6.528;2023-12-04T00:01:30;1.40;99.90
27858;DHT22;16852;51.446;6.528;2023-12-04T00:03:31;1.40;99.90
27858;DHT22;16852;51.446;6.528;2023-12-04T00:05:31;1.40;99.90
27858;DHT22;16852;51.446;6.528;2023-12-04T00:07:32;1.40;99.90
27858;DHT22;16852;51.446;6.528;2023-12-04T00:09:33;1.40;99.90
27858;DHT22;16852;51.446;6.528;2023-12-04T00:11:33;1.50;99.90
27858;DHT22;16852;51.446;6.528;2023-12-04T00:13:34;1.50;99.90
27858;DHT22;16852;51.446;6.528;2023-12-04T00:15:35;1.50;99.90
27858;DHT22;16852;51.446;6.528;2023-12-04T00:17:36;1.50;99.90
27858;DHT22;16852;51.446;6.528;2023-12-04T00:19:40;1.50;99.90
27858;DHT22;16852;51.446;6.528;2023-12-04T00:21:40;1.50;99.90
27858;DHT22;16852;51.446;6.528;2023-12-04T00:23:41;1.50;99.90
27858;DHT22;16852;51.446;6.528;2023-12-04T00:25:41;1.50;99.90
27858;DHT22;16852;51.446;6.528;2023-12-04T00:27:42;1.50;99.90
27858;DHT22;16852;51.446;6.528;2023-12-04T00:29:43;1.50;99.90
27858;DHT22;16852;51.446;6.528;2023-12-04T00:31:43;1.60;99.90
27858;DHT22;16852;51.446;6.528;2023-12-04T00:33:44;1.60;99.90
27858;DHT22;16852;51.446;6.528;2023-12-04T00:35:44;1.50;99.90
27858;DHT22;16852;51.446;6.528;2023-12-04T00:37:45;1.50;99.90
27858;DHT22;16852;51.446;6.528;2023-12-04T00:39:45;1.50;99.90
27858;DHT22;16852;51.446;6.528;2023-12-04T00:41:46;1.60;99.90
27858;DHT22;16852;51.446;6.528;2023-12-04T00:43:47;1.60;99.90
27858;DHT22;16852;51.446;6.528;2023-12-04T00:45:47;1.60;99.90
27858;DHT22;16852;51.446;6.528;2023-12-04T00:47:48;1.60;99.90
27858;DHT22;16852;51.446;6.528;2023-12-04T00:49:48;1.60;99.90
27858;DHT22;16852;51.446;6.528;2023-12-04T00:51:49;1.60;99.90
27858;DHT22;16852;51.446;6.528;2023-12-04T00:53:50;1.60;99.90
27858;DHT22;16852;51.446;6.528;2023-12-04T00:55:50;1.70;99.90
27858;DHT22;16852;51.446;6.528;2023-12-04T00:57:51;1.60;99.90
27858;DHT22;16852;51.446;6.528;2023-12-04T00:59:51;1.60;99.90
27858;DHT22;16852;51.446;6.528;2023-12-04T01:01:52;1.70;99.90
27858;DHT22;16852;51.446;6.528;2023-12-04T01:03:53;1.60;99.90
27858;DHT22;16852;51.446;6.528;2023-12-04T01:05:53;1.60;99.90
27858;DHT22;16852;51.446;6.528;2023-12-04T01:07:54;1.60;99.90
27858;DHT22;16852;51.446;6.528;2023-12-04T01:09:54;1.60;99.90
27858;DHT22;16852;51.446;6.528;2023-12-04T01:11:55;1.60;99.90
27858;DHT22;16852;51.446;6.528;2023-12-04T01:13:55;1.60;99.90
27858;DHT22;16852;51.446;6.528;2023-12-04T01:15:56;1.60;99.90
27858;DHT22;16852;51.446;6.528;2023-12-04T01:17:57;1.60;99.90
27858;DHT22;16852;51.446;6.528;2023-12-04T01:19:57;1.60;99.90
27858;DHT22;16852;51.446;6.528;2023-12-04T01:21:58;1.60;99.90
27858;DHT22;16852;51.446;6.528;2023-12-04T01:23:58;1.60;99.90
27858;DHT22;16852;51.446;6.528;2023-12-04T01:25:59;1.60;99.90
27858;DHT22;16852;51.446;6.528;2023-12-04T01:28:00;1.60;99.90
27858;DHT22;16852;51.446;6.528;2023-12-04T01:30:01;1.70;99.90
27858;DHT22;16852;51.446;6.528;2023-12-04T01:32:01;1.70;99.90
27858;DHT22;16852;51.446;6.528;2023-12-04T01:34:02;1.70;99.90
27858;DHT22;16852;51.446;6.528;2023-12-04T01:36:03;1.70;99.90
27858;DHT22;16852;51.446;6.528;2023-12-04T01:38:03;1.80;99.90
27858;DHT22;16852;51.446;6.528;2023-12-04T01:40:05;1.70;99.90
27858;DHT22;16852;51.446;6.528;2023-12-04T01:42:07;1.70;99.90
27858;DHT22;16852;51.446;6.528;2023-12-04T01:44:08;1.70;99.90
27858;DHT22;16852;51.446;6.528;2023-12-04T01:46:09;1.70;99.90
27858;DHT22;16852;51.446;6.528;2023-12-04T01:48:11;1.70;99.90
27858;DHT22;16852;51.446;6.528;2023-12-04T01:50:14;1.70;99.90
27858;DHT22;16852;51.446;6.528;2023-12-04T01:52:15;1.70;99.90
27858;DHT22;16852;51.446;6.528;2023-12-04T01:54:17;1.70;99.90
27858;DHT22;16852;51.446;6.528;2023-12-04T01:56:17;1.70;99.90
27858;DHT22;16852;51.446;6.528;2023-12-04T01:58:19;1.70;99.90
27858;DHT22;16852;51.446;6.528;2023-12-04T02:00:20;1.70;99.90
27858;DHT22;16852;51.446;6.528;2023-12-04T02:02:21;1.70;99.90
27858;DHT22;16852;51.446;6.528;2023-12-04T02:04:22;1.70;99.90
27858;DHT22;16852;51.446;6.528;2023-12-04T02:06:22;1.70;99.90
27858;DHT22;16852;51.446;6.528;2023-12-04T02:08:23;1.70;99.90
27858;DHT22;16852;51.446;6.528;2023-12-04T02:10:24;1.70;99.90
27858;DHT22;16852;51.446;6.528;2023-12-04T02:12:25;1.70;99.90
27858;DHT22;16852;51.446;6.528;2023-12-04T02:14:26;1.70;99.90
27858;DHT22;16852;51.446;6.528;2023-12-04T02:16:28;1.70;99.90
27858;DHT22;16852;51.446;6.528;2023-12-04T02:18:30;1.70;99.90
27858;DHT22;16852;51.446;6.528;2023-12-04T02:20:32;1.70;99.90
27858;DHT22;16852;51.446;6.528;2023-12-04T02:22:33;1.70;99.90
27858;DHT22;16852;51.446;6.528;2023-12-04T02:24:35;1.70;99.90
27858;DHT22;16852;51.446;6.528;2023-12-04T02:26:44;1.70;99.90
27858;DHT22;16852;51.446;6.528;2023-12-04T02:28:49;1.80;99.90
27858;DHT22;16852;51.446;6.528;2023-12-04T02:30:52;1.70;99.90
27858;DHT22;16852;51.446;6.528;2023-12-04T02:32:54;1.80;99.90
27858;DHT22;16852;51.446;6.528;2023-12-04T02:34:55;1.70;99.90
27858;DHT22;16852;51.446;6.528;2023-12-04T02:36:56;1.70;99.90
27858;DHT22;16852;51.446;6.528;2023-12-04T02:38:58;1.70;99.90
27858;DHT22;16852;51.446;6.528;2023-12-04T02:40:59;1.70;99.90
27858;DHT22;16852;51.446;6.528;2023-12-04T02:43:00;1.70;99.90
27858;DHT22;16852;51.446;6.528;2023-12-04T02:45:00;1.70;99.90
27858;DHT22;16852;51.446;6.528;2023-12-04T02:47:01;1.70;99.90
27858;DHT22;16852;51.446;6.528;2023-12-04T02:49:01;1.70;99.90
27858;DHT22;16852;51.446;6.528;2023-12-04T02:51:03;1.70;99.90
27858;DHT22;16852;51.446;6.528;2023-12-04T02:53:04;1.70;99.90
27858;DHT22;16852;51.446;6.528;2023-12-04T02:55:05;1.70;99.90
27858;DHT22;16852;51.446;6.528;2023-12-04T02:57:05;1.70;99.90
27858;DHT22;16852;51.446;6.528;2023-12-04T02:59:06;1.70;99.90
27858;DHT22;16852;51.446;6.528;2023-12-04T03:01:06;1.80;99.90
27858;DHT22;16852;51.446;6.528;2023-12-04T03:03:07;1.80;99.90
27858;DHT22;16852;51.446;6.528;2023-12-04T03:05:08;1.80;99.90
27858;DHT22;16852;51.446;6.528;2023-12-04T03:07:09;1.70;99.90
27858;DHT22;16852;51.446;6.528;2023-12-04T03:09:09;1.70;99.90
27858;DHT22;16852;51.446;6.528;2023-12-04T03:11:10;1.80;99.90
27858;DHT22;16852;51.446;6.528;2023-12-04T03:13:11;1.80;99.90
27858;DHT22;16852;51.446;6.528;2023-12-04T03:15:11;1.80;99.90
27858;DHT22;16852;51.446;6.528;2023-12-04T03:17:13;1.80;99.90
27858;DHT22;16852;51.446;6.528;2023-12-04T03:19:14;1.80;99.90
27858;DHT22;16852;51.446;6.528;2023-12-04T03:21:14;1.80;99.90
27858;DHT22;16852;51.446;6.528;2023-12-04T03:23:15;1.80;99.90
27858;DHT22;16852;51.446;6.528;2023-12-04T03:25:15;1.80;99.90
27858;DHT22;16852;51.446;6.528;2023-12-04T03:27:16;1.80;99.90
27858;DHT22;16852;51.446;6.528;2023-12-04T03:29:16;1.80;99.90
27858;DHT22;16852;51.446;6.528;2023-12-04T03:31:17;1.80;99.90
27858;DHT22;16852;51.446;6.528;2023-12-04T03:33:18;1.80;99.90
27858;DHT22;16852;51.446;6.528;2023-12-04T03:35:18;1.80;99.90
27858;DHT22;16852;51.446;6.528;2023-12-04T03:37:19;1.80;99.90
27858;DHT22;16852;51.446;6.528;2023-12-04T03:39:19;1.90;99.90
27858;DHT22;16852;51.446;6.528;2023-12-04T03:41:20;1.80;99.90
27858;DHT22;16852;51.446;6.528;2023-12-04T03:43:22;1.90;99.90
27858;DHT22;16852;51.446;6.528;2023-12-04T03:45:23;1.80;99.90
27858;DHT22;16852;51.446;6.528;2023-12-04T03:47:23;1.90;99.90
27858;DHT22;16852;51.446;6.528;2023-12-04T03:49:25;1.80;99.90
27858;DHT22;16852;51.446;6.528;2023-12-04T03:51:26;1.90;99.90
27858;DHT22;16852;51.446;6.528;2023-12-04T03:53:27;1.80;99.90
27858;DHT22;16852;51.446;6.528;2023-12-04T03:55:27;1.80;99.90
27858;DHT22;16852;51.446;6.528;2023-12-04T03:57:28;1.80;99.90
27858;DHT22;16852;51.446;6.528;2023-12-04T03:59:28;1.80;99.90
27858;DHT22;16852;51.446;6.528;2023-12-04T04:01:29;1.80;99.90
27858;DHT22;16852;51.446;6.528;2023-12-04T04:03:29;1.80;99.90
27858;DHT22;16852;51.446;6.528;2023-12-04T04:05:30;1.80;99.90
27858;DHT22;16852;51.446;6.528;2023-12-04T04:07:31;1.80;99.90
27858;DHT22;16852;51.446;6.528;2023-12-04T04:09:31;1.80;99.90
27858;DHT22;16852;51.446;6.528;2023-12-04T04:11:32;1.80;99.90
27858;DHT22;16852;51.446;6.528;2023-12-04T04:13:32;1.80;99.90
27858;DHT22;16852;51.446;6.528;2023-12-04T04:15:33;1.80;99.90
27858;DHT22;16852;51.446;6.528;2023-12-04T04:17:34;1.80;99.90
27858;DHT22;16852;51.446;6.528;2023-12-04T04:19:34;1.80;99.90
27858;DHT22;16852;51.446;6.528;2023-12-04T04:21:39;1.70;99.90
27858;DHT22;16852;51.446;6.528;2023-12-04T04:23:40;1.80;99.90
27858;DHT22;16852;51.446;6.528;2023-12-04T04:25:40;1.80;99.90
27858;DHT22;16852;51.446;6.528;2023-12-04T04:27:41;1.80;99.90
27858;DHT22;16852;51.446;6.528;2023-12-04T04:29:42;1.80;99.90
27858;DHT22;16852;51.446;6.528;2023-12-04T04:31:42;1.80;99.90
27858;DHT22;16852;51.446;6.528;2023-12-04T04:33:43;1.80;99.90
27858;DHT22;16852;51.446;6.528;2023-12-04T04:35:44;1.80;99.90
27858;DHT22;16852;51.446;6.528;2023-12-04T04:37:44;1.90;99.90
27858;DHT22;16852;51.446;6.528;2023-12-04T04:39:45;1.90;99.90
27858;DHT22;16852;51.446;6.528;2023-12-04T04:41:46;1.90;99.90
27858;DHT22;16852;51.446;6.528;2023-12-04T04:43:46;1.80;99.90
27858;DHT22;16852;51.446;6.528;2023-12-04T04:45:47;1.80;99.90
27858;DHT22;16852;51.446;6.528;2023-12-04T04:47:47;1.90;99.90
27858;DHT22;16852;51.446;6.528;2023-12-04T04:49:48;1.80;99.90
27858;DHT22;16852;51.446;6.528;2023-12-04T04:51:49;1.80;99.90
27858;DHT22;16852;51.446;6.528;2023-12-04T04:53:49;1.80;99.90
27858;DHT22;16852;51.446;6.528;2023-12-04T04:55:50;1.80;99.90
27858;DHT22;16852;51.446;6.528;2023-12-04T04:57:51;1.80;99.90
27858;DHT22;16852;51.446;6.528;2023-12-04T04:59:51;1.80;99.90
27858;DHT22;16852;51.446;6.528;2023-12-04T05:01:52;1.80;99.90
27858;DHT22;16852;51.446;6.528;2023-12-04T05:03:52;1.80;99.90
27858;DHT22;16852;51.446;6.528;2023-12-04T05:05:53;1.80;99.90
27858;DHT22;16852;51.446;6.528;2023-12-04T05:07:53;1.80;99.90
27858;DHT22;16852;51.446;6.528;2023-12-04T05:09:54;1.80;99.90
27858;DHT22;16852;51.446;6.528;2023-12-04T05:11:55;1.80;99.90
27858;DHT22;16852;51.446;6.528;2023-12-04T05:13:55;1.80;99.90
27858;DHT22;16852;51.446;6.528;2023-12-04T05:15:56;1.80;99.90
27858;DHT22;16852;51.446;6.528;2023-12-04T05:17:56;1.80;99.90
27858;DHT22;16852;51.446;6.528;2023-12-04T05:19:57;1.80;99.90
27858;DHT22;16852;51.446;6.528;2023-12-04T05:21:57;1.80;99.90
27858;DHT22;16852;51.446;6.528;2023-12-04T05:23:58;1.80;99.90
27858;DHT22;16852;51.446;6.528;2023-12-04T05:25:59;1.80;99.90
27858;DHT22;16852;51.446;6.528;2023-12-04T05:27:59;1.80;99.90
27858;DHT22;16852;51.446;6.528;2023-12-04T05:30:00;1.80;99.90
27858;DHT22;16852;51.446;6.528;2023-12-04T05:32:00;1.90;99.90
27858;DHT22;16852;51.446;6.528;2023-12-04T05:34:01;1.90;99.90
27858;DHT22;16852;51.446;6.528;2023-12-04T05:36:02;1.90;99.90
27858;DHT22;16852;51.446;6.528;2023-12-04T05:38:02;1.90;99.90
27858;DHT22;16852;51.446;6.528;2023-12-04T05:40:03;1.90;99.90
27858;DHT22;16852;51.446;6.528;2023-12-04T05:42:05;1.90;99.90
27858;DHT22;16852;51.446;6.528;2023-12-04T05:44:06;1.80;99.90
27858;DHT22;16852;51.446;6.528;2023-12-04T05:46:06;1.80;99.90
27858;DHT22;16852;51.446;6.528;2023-12-04T05:48:07;1.80;99.90
27858;DHT22;16852;51.446;6.528;2023-12-04T05:50:08;1.80;99.90
27858;DHT22;16852;51.446;6.528;2023-12-04T05:52:08;1.80;99.90
27858;DHT22;16852;51.446;6.528;2023-12-04T05:54:09;1.90;99.90
27858;DHT22;16852;51.446;6.528;2023-12-04T05:56:10;1.90;99.90
27858;DHT22;16852;51.446;6.528;2023-12-04T05:58:11;1.80;99.90
27858;DHT22;16852;51.446;6.528;2023-12-04T06:00:12;1.80;99.90
27858;DHT22;16852;51.446;6.528;2023-12-04T06:02:13;1.80;99.90
27858;DHT22;16852;51.446;6.528;2023-12-04T06:04:15;1.80;99.90
27858;DHT22;16852;51.446;6.528;2023-12-04T06:06:16;1.90;99.90
27858;DHT22;16852;51.446;6.528;2023-12-04T06:08:16;1.80;99.90
27858;DHT22;16852;51.446;6.528;2023-12-04T06:10:17;1.90;99.90
27858;DHT22;16852;51.446;6.528;2023-12-04T06:12:18;1.80;99.90
27858;DHT22;16852;51.446;6.528;2023-12-04T06:14:19;1.80;99.90
27858;DHT22;16852;51.446;6.528;2023-12-04T06:16:19;1.80;99.90
27858;DHT22;16852;51.446;6.528;2023-12-04T06:18:20;1.90;99.90
27858;DHT22;16852;51.446;6.528;2023-12-04T06:20:23;1.90;99.90
27858;DHT22;16852;51.446;6.528;2023-12-04T06:22:24;1.90;99.90
27858;DHT22;16852;51.446;6.528;2023-12-04T06:24:25;1.90;99.90
27858;DHT22;16852;51.446;6.528;2023-12-04T06:26:26;1.90;99.90
27858;DHT22;16852;51.446;6.528;2023-12-04T06:28:27;1.90;99.90
27858;DHT22;16852;51.446;6.528;2023-12-04T06:30:28;1.90;99.90
27858;DHT22;16852;51.446;6.528;2023-12-04T06:32:28;1.90;99.90
27858;DHT22;16852;51.446;6.528;2023-12-04T06:34:29;1.90;99.90
27858;DHT22;16852;51.446;6.528;2023-12-04T06:36:31;1.90;99.90
27858;DHT22;16852;51.446;6.528;2023-12-04T06:38:39;1.90;99.90
27858;DHT22;16852;51.446;6.528;2023-12-04T06:40:40;1.80;99.90
27858;DHT22;16852;51.446;6.528;2023-12-04T06:42:41;1.80;99.90
27858;DHT22;16852;51.446;6.528;2023-12-04T06:44:41;1.90;99.90
27858;DHT22;16852;51.446;6.528;2023-12-04T06:46:46;1.90;99.90
27858;DHT22;16852;51.446;6.528;2023-12-04T06:48:53;1.80;99.90
27858;DHT22;16852;51.446;6.528;2023-12-04T06:50:54;1.80;99.90
27858;DHT22;16852;51.446;6.528;2023-12-04T06:52:54;1.90;99.90
27858;DHT22;16852;51.446;6.528;2023-12-04T06:54:55;1.90;99.90
27858;DHT22;16852;51.446;6.528;2023-12-04T06:56:56;1.90;99.90
27858;DHT22;16852;51.446;6.528;2023-12-04T06:58:56;1.90;99.90
27858;DHT22;16852;51.446;6.528;2023-12-04T07:00:57;1.90;99.90
27858;DHT22;16852;51.446;6.528;2023-12-04T07:02:57;2.00;99.90
27858;DHT22;16852;51.446;6.528;2023-12-04T07:04:58;1.90;99.90
27858;DHT22;16852;51.446;6.528;2023-12-04T07:06:58;1.90;99.90
27858;DHT22;16852;51.446;6.528;2023-12-04T07:09:05;1.90;99.90
27858;DHT22;16852;51.446;6.528;2023-12-04T07:11:08;2.00;99.90
27858;DHT22;16852;51.446;6.528;2023-12-04T07:13:09;2.00;99.90
27858;DHT22;16852;51.446;6.528;2023-12-04T07:15:10;2.00;99.90
27858;DHT22;16852;51.446;6.528;2023-12-04T07:17:11;2.00;99.90
27858;DHT22;16852;51.446;6.528;2023-12-04T07:19:12;2.10;99.90
27858;DHT22;16852;51.446;6.528;2023-12-04T07:21:15;2.00;99.90
27858;DHT22;16852;51.446;6.528;2023-12-04T07:23:15;2.00;99.90
27858;DHT22;16852;51.446;6.528;2023-12-04T07:25:16;2.00;99.90
27858;DHT22;16852;51.446;6.528;2023-12-04T07:27:16;2.10;99.90
27858;DHT22;16852;51.446;6.528;2023-12-04T07:29:17;2.00;99.90
27858;DHT22;16852;51.446;6.528;2023-12-04T07:31:18;2.00;99.90
27858;DHT22;16852;51.446;6.528;2023-12-04T07:33:18;2.00;99.90
27858;DHT22;16852;51.446;6.528;2023-12-04T07:35:19;2.00;99.90
27858;DHT22;16852;51.446;6.528;2023-12-04T07:37:19;2.00;99.90
27858;DHT22;16852;51.446;6.528;2023-12-04T07:39:20;2.00;99.90
27858;DHT22;16852;51.446;6.528;2023-12-04T07:41:21;2.00;99.90
27858;DHT22;16852;51.446;6.528;2023-12-04T07:43:22;2.00;99.90
27858;DHT22;16852;51.446;6.528;2023-12-04T07:45:22;2.00;99.90
27858;DHT22;16852;51.446;6.528;2023-12-04T07:47:24;2.00;99.90
27858;DHT22;16852;51.446;6.528;2023-12-04T07:49:24;2.00;99.90
27858;DHT22;16852;51.446;6.528;2023-12-04T07:51:25;2.00;99.90
27858;DHT22;16852;51.446;6.528;2023-12-04T07:53:26;2.00;99.90
27858;DHT22;16852;51.446;6.528;2023-12-04T07:55:26;2.10;99.90
27858;DHT22;16852;51.446;6.528;2023-12-04T07:57:27;2.00;99.90
27858;DHT22;16852;51.446;6.528;2023-12-04T07:59:27;2.10;99.90
27858;DHT22;16852;51.446;6.528;2023-12-04T08:01:28;2.10;99.90
27858;DHT22;16852;51.446;6.528;2023-12-04T08:03:29;2.10;99.90
27858;DHT22;16852;51.446;6.528;2023-12-04T08:05:29;2.10;99.90
27858;DHT22;16852;51.446;6.528;2023-12-04T08:07:32;2.00;99.90
27858;DHT22;16852;51.446;6.528;2023-12-04T08:09:32;2.10;99.90
27858;DHT22;16852;51.446;6.528;2023-12-04T08:11:33;2.10;99.90
27858;DHT22;16852;51.446;6.528;2023-12-04T08:13:34;2.10;99.90
27858;DHT22;16852;51.446;6.528;2023-12-04T08:15:35;2.10;99.90
27858;DHT22;16852;51.446;6.528;2023-12-04T08:17:36;2.10;99.90
27858;DHT22;16852;51.446;6.528;2023-12-04T08:19:36;2.10;99.90
27858;DHT22;16852;51.446;6.528;2023-12-04T08:21:38;2.10;99.90
27858;DHT22;16852;51.446;6.528;2023-12-04T08:23:38;2.20;99.90
27858;DHT22;16852;51.446;6.528;2023-12-04T08:25:39;2.10;99.90
27858;DHT22;16852;51.446;6.528;2023-12-04T08:27:40;2.20;99.90
27858;DHT22;16852;51.446;6.528;2023-12-04T08:29:40;2.20;99.90
27858;DHT22;16852;51.446;6.528;2023-12-04T08:31:41;2.30;99.90
27858;DHT22;16852;51.446;6.528;2023-12-04T08:33:42;2.30;99.90
27858;DHT22;16852;51.446;6.528;2023-12-04T08:35:42;2.30;99.90
27858;DHT22;16852;51.446;6.528;2023-12-04T08:37:43;2.30;99.90
27858;DHT22;16852;51.446;6.528;2023-12-04T08:39:44;2.40;99.90
27858;DHT22;16852;51.446;6.528;2023-12-04T08:41:46;2.40;99.90
27858;DHT22;16852;51.446;6.528;2023-12-04T08:43:47;2.40;99.90
27858;DHT22;16852;51.446;6.528;2023-12-04T08:45:48;2.40;99.90
27858;DHT22;16852;51.446;6.528;2023-12-04T08:47:49;2.40;99.90
27858;DHT22;16852;51.446;6.528;2023-12-04T08:49:49;2.40;99.90
27858;DHT22;16852;51.446;6.528;2023-12-04T08:51:51;2.40;99.90
27858;DHT22;16852;51.446;6.528;2023-12-04T08:53:52;2.40;99.90
27858;DHT22;16852;51.446;6.528;2023-12-04T08:55:53;2.40;99.90
27858;DHT22;16852;51.446;6.528;2023-12-04T08:57:54;2.40;99.90
27858;DHT22;16852;51.446;6.528;2023-12-04T08:59:54;2.40;99.90
27858;DHT22;16852;51.446;6.528;2023-12-04T09:01:55;2.40;99.90
27858;DHT22;16852;51.446;6.528;2023-12-04T09:03:55;2.40;99.90
27858;DHT22;16852;51.446;6.528;2023-12-04T09:05:56;2.40;99.90
27858;DHT22;16852;51.446;6.528;2023-12-04T09:07:57;2.50;99.90
27858;DHT22;16852;51.446;6.528;2023-12-04T09:09:59;2.50;99.90
27858;DHT22;16852;51.446;6.528;2023-12-04T09:11:59;2.50;99.90
27858;DHT22;16852;51.446;6.528;2023-12-04T09:14:00;2.50;99.90
27858;DHT22;16852;51.446;6.528;2023-12-04T09:16:01;2.60;99.90
27858;DHT22;16852;51.446;6.528;2023-12-04T09:18:02;2.60;99.90
27858;DHT22;16852;51.446;6.528;2023-12-04T09:20:03;2.60;99.90
27858;DHT22;16852;51.446;6.528;2023-12-04T09:22:06;2.60;99.90
27858;DHT22;16852;51.446;6.528;2023-12-04T09:24:06;2.60;99.90
27858;DHT22;16852;51.446;6.528;2023-12-04T09:26:07;2.70;99.90
27858;DHT22;16852;51.446;6.528;2023-12-04T09:28:07;2.70;99.90
27858;DHT22;16852;51.446;6.528;2023-12-04T09:30:08;2.70;99.90
27858;DHT22;16852;51.446;6.528;2023-12-04T09:32:09;2.70;99.90
27858;DHT22;16852;51.446;6.528;2023-12-04T09:34:13;2.70;99.90
27858;DHT22;16852;51.446;6.528;2023-12-04T09:36:13;2.70;99.90
27858;DHT22;16852;51.446;6.528;2023-12-04T09:38:14;2.70;99.90
27858;DHT22;16852;51.446;6.528;2023-12-04T09:40:14;2.70;99.90
27858;DHT22;16852;51.446;6.528;2023-12-04T09:42:16;2.70;99.90
27858;DHT22;16852;51.446;6.528;2023-12-04T09:44:19;2.70;99.90
27858;DHT22;16852;51.446;6.528;2023-12-04T09:46:20;2.70;99.90
27858;DHT22;16852;51.446;6.528;2023-12-04T09:48:26;2.80;99.90
27858;DHT22;16852;51.446;6.528;2023-12-04T09:50:27;2.80;99.90
27858;DHT22;16852;51.446;6.528;2023-12-04T09:52:28;2.80;99.90
27858;DHT22;16852;51.446;6.528;2023-12-04T09:54:29;2.70;99.90
27858;DHT22;16852;51.446;6.528;2023-12-04T09:56:33;2.80;99.90
27858;DHT22;16852;51.446;6.528;2023-12-04T09:58:34;2.80;99.90
27858;DHT22;16852;51.446;6.528;2023-12-04T10:00:41;2.80;99.90
27858;DHT22;16852;51.446;6.528;2023-12-04T10:02:43;2.80;99.90
27858;DHT22;16852;51.446;6.528;2023-12-04T10:04:44;2.80;99.90
27858;DHT22;16852;51.446;6.528;2023-12-04T10:06:45;2.90;99.90
27858;DHT22;16852;51.446;6.528;2023-12-04T10:08:46;2.90;99.90
27858;DHT22;16852;51.446;6.528;2023-12-04T10:10:47;2.90;99.90
27858;DHT22;16852;51.446;6.528;2023-12-04T10:12:47;2.90;99.90
27858;DHT22;16852;51.446;6.528;2023-12-04T10:17:15;2.80;99.90
27858;DHT22;16852;51.446;6.528;2023-12-04T10:19:19;2.90;99.90
27858;DHT22;16852;51.446;6.528;2023-12-04T10:21:20;2.90;99.90
27858;DHT22;16852;51.446;6.528;2023-12-04T10:23:21;2.90;99.90
27858;DHT22;16852;51.446;6.528;2023-12-04T10:25:23;2.90;99.90
27858;DHT22;16852;51.446;6.528;2023-12-04T10:27:26;2.90;99.90
27858;DHT22;16852;51.446;6.528;2023-12-04T10:29:28;2.90;99.90
27858;DHT22;16852;51.446;6.528;2023-12-04T10:31:34;2.90;99.90
27858;DHT22;16852;51.446;6.528;2023-12-04T10:33:35;2.90;99.90
27858;DHT22;16852;51.446;6.528;2023-12-04T10:35:36;2.90;99.90
27858;DHT22;16852;51.446;6.528;2023-12-04T10:37:37;3.00;99.90
27858;DHT22;16852;51.446;6.528;2023-12-04T10:39:48;3.00;99.90
27858;DHT22;16852;51.446;6.528;2023-12-04T10:41:59;3.00;99.90
27858;DHT22;16852;51.446;6.528;2023-12-04T10:44:01;3.00;99.90
27858;DHT22;16852;51.446;6.528;2023-12-04T10:46:01;3.00;99.90
27858;DHT22;16852;51.446;6.528;2023-12-04T10:48:03;3.00;99.90
27858;DHT22;16852;51.446;6.528;2023-12-04T10:50:05;2.90;99.90
27858;DHT22;16852;51.446;6.528;2023-12-04T10:52:07;2.90;99.90
27858;DHT22;16852;51.446;6.528;2023-12-04T10:54:09;3.00;99.90
27858;DHT22;16852;51.446;6.528;2023-12-04T10:56:36;2.90;99.90
27858;DHT22;16852;51.446;6.528;2023-12-04T10:58:40;2.90;99.90
27858;DHT22;16852;51.446;6.528;2023-12-04T11:00:46;2.90;99.90
27858;DHT22;16852;51.446;6.528;2023-12-04T11:02:48;3.00;99.90
27858;DHT22;16852;51.446;6.528;2023-12-04T11:04:50;3.00;99.90
27858;DHT22;16852;51.446;6.528;2023-12-04T11:06:54;3.00;99.90
27858;DHT22;16852;51.446;6.528;2023-12-04T11:08:56;3.00;99.90
27858;DHT22;16852;51.446;6.528;2023-12-04T11:13:12;3.00;99.90
27858;DHT22;16852;51.446;6.528;2023-12-04T11:15:17;3.00;99.90
27858;DHT22;16852;51.446;6.528;2023-12-04T11:17:38;3.00;99.90
27858;DHT22;16852;51.446;6.528;2023-12-04T11:20:04;3.00;99.90
27858;DHT22;16852;51.446;6.528;2023-12-04T11:22:27;3.00;99.90
27858;DHT22;16852;51.446;6.528;2023-12-04T11:24:47;3.00;99.90
27858;DHT22;16852;51.446;6.528;2023-12-04T11:27:10;2.90;99.90
27858;DHT22;16852;51.446;6.528;2023-12-04T11:29:30;3.00;99.90
27858;DHT22;16852;51.446;6.528;2023-12-04T11:31:50;3.00;99.90
27858;DHT22;16852;51.446;6.528;2023-12-04T11:34:10;3.00;99.90
27858;DHT22;16852;51.446;6.528;2023-12-04T11:36:30;3.00;99.90
27858;DHT22;16852;51.446;6.528;2023-12-04T11:38:49;3.00;99.90
27858;DHT22;16852;51.446;6.528;2023-12-04T11:41:18;3.00;99.90
27858;DHT22;16852;51.446;6.528;2023-12-04T11:43:42;3.00;99.90
27858;DHT22;16852;51.446;6.528;2023-12-04T11:46:08;3.00;99.90
27858;DHT22;16852;51.446;6.528;2023-12-04T11:48:28;3.00;99.90
27858;DHT22;16852;51.446;6.528;2023-12-04T11:50:47;3.00;99.90
27858;DHT22;16852;51.446;6.528;2023-12-04T11:53:07;3.00;99.90
27858;DHT22;16852;51.446;6.528;2023-12-04T11:55:26;3.00;99.90
27858;DHT22;16852;51.446;6.528;2023-12-04T11:57:45;3.00;99.90
27858;DHT22;16852;51.446;6.528;2023-12-04T12:02:31;2.90;99.90
27858;DHT22;16852;51.446;6.528;2023-12-04T12:04:50;2.90;99.90
27858;DHT22;16852;51.446;6.528;2023-12-04T12:07:13;2.90;99.90
27858;DHT22;16852;51.446;6.528;2023-12-04T12:09:33;2.90;99.90
27858;DHT22;16852;51.446;6.528;2023-12-04T12:11:53;2.90;99.90
27858;DHT22;16852;51.446;6.528;2023-12-04T12:14:13;2.90;99.90
27858;DHT22;16852;51.446;6.528;2023-12-04T12:16:32;2.90;99.90
27858;DHT22;16852;51.446;6.528;2023-12-04T12:18:51;2.90;99.90
27858;DHT22;16852;51.446;6.528;2023-12-04T12:21:11;2.80;99.90
27858;DHT22;16852;51.446;6.528;2023-12-04T12:23:30;2.80;99.90
27858;DHT22;16852;51.446;6.528;2023-12-04T12:25:49;2.80;99.90
27858;DHT22;16852;51.446;6.528;2023-12-04T12:28:10;2.80;99.90
27858;DHT22;16852;51.446;6.528;2023-12-04T12:30:29;2.80;99.90
27858;DHT22;16852;51.446;6.528;2023-12-04T12:32:33;2.80;99.90
27858;DHT22;16852;51.446;6.528;2023-12-04T12:34:33;2.80;99.90
27858;DHT22;16852;51.446;6.528;2023-12-04T12:36:36;2.80;99.90
27858;DHT22;16852;51.446;6.528;2023-12-04T12:38:36;2.80;99.90
27858;DHT22;16852;51.446;6.528;2023-12-04T12:40:37;2.80;99.90
27858;DHT22;16852;51.446;6.528;2023-12-04T12:42:38;2.70;99.90
27858;DHT22;16852;51.446;6.528;2023-12-04T12:44:42;2.70;99.90
27858;DHT22;16852;51.446;6.528;2023-12-04T12:46:47;2.70;99.90
27858;DHT22;16852;51.446;6.528;2023-12-04T12:48:48;2.70;99.90
27858;DHT22;16852;51.446;6.528;2023-12-04T12:50:49;2.70;99.90
27858;DHT22;16852;51.446;6.528;2023-12-04T12:52:50;2.70;99.90
27858;DHT22;16852;51.446;6.528;2023-12-04T12:54:52;2.70;99.90
27858;DHT22;16852;51.446;6.528;2023-12-04T12:56:52;2.70;99.90
27858;DHT22;16852;51.446;6.528;2023-12-04T12:58:53;2.80;99.90
27858;DHT22;16852;51.446;6.528;2023-12-04T13:00:55;2.80;99.90
27858;DHT22;16852;51.446;6.528;2023-12-04T13:02:56;2.80;99.90
27858;DHT22;16852;51.446;6.528;2023-12-04T13:04:56;2.80;99.90
27858;DHT22;16852;51.446;6.528;2023-12-04T13:06:57;2.80;99.90
27858;DHT22;16852;51.446;6.528;2023-12-04T13:08:57;2.80;99.90
27858;DHT22;16852;51.446;6.528;2023-12-04T13:10:58;2.80;99.90
27858;DHT22;16852;51.446;6.528;2023-12-04T13:12:59;2.80;99.90
27858;DHT22;16852;51.446;6.528;2023-12-04T13:15:01;2.80;99.90